Terminal Aerodrome Forecast
Issued by NWS

Home | Current Version | Previous Version | Text Only | Print | Product List | Glossary On
Versions: 1 2 3 4 5 6 7 8 9 10 11 12
664
FTUS45 KABQ 292340
TAFFMN
TAF
KFMN 292340Z 3000/3024 27010G17KT P6SM SCT120
     FM300200 29006KT P6SM FEW120
     FM300600 08006KT P6SM SKC
     FM301800 20007KT P6SM FEW120
     FM302100 27010G18KT P6SM SCT120=

USA.gov is the U.S. government's official web portal to all federal, state and local government web resources and services.